sensor_id;sensor_type;location;lat;lon;timestamp;P1;P2;P0
77354;PMS7003;66422;51.202;19.936;2023-04-25T00:04:28;29.00;28.25;19.00
77354;PMS7003;66422;51.202;19.936;2023-04-25T00:19:48;27.00;23.00;15.00
77354;PMS7003;66422;51.202;19.936;2023-04-25T00:35:09;16.50;15.50;11.00
77354;PMS7003;66422;51.202;19.936;2023-04-25T00:50:29;16.00;13.00;9.00
77354;PMS7003;66422;51.202;19.936;2023-04-25T01:05:50;11.00;9.00;8.00
77354;PMS7003;66422;51.202;19.936;2023-04-25T01:21:11;10.00;9.00;8.00
77354;PMS7003;66422;51.202;19.936;2023-04-25T01:36:32;12.00;10.00;8.00
77354;PMS7003;66422;51.202;19.936;2023-04-25T01:51:54;12.50;10.50;8.00
77354;PMS7003;66422;51.202;19.936;2023-04-25T02:07:14;9.00;9.00;8.00
77354;PMS7003;66422;51.202;19.936;2023-04-25T02:22:42;13.33;9.67;8.33
77354;PMS7003;66422;51.202;19.936;2023-04-25T02:38:02;10.00;10.00;8.00
77354;PMS7003;66422;51.202;19.936;2023-04-25T02:53:21;17.33;13.33;9.00
77354;PMS7003;66422;51.202;19.936;2023-04-25T03:08:43;21.00;18.00;13.00
77354;PMS7003;66422;51.202;19.936;2023-04-25T03:24:03;22.00;17.50;12.50
77354;PMS7003;66422;51.202;19.936;2023-04-25T03:39:24;22.00;18.00;13.00
77354;PMS7003;66422;51.202;19.936;2023-04-25T03:54:44;22.00;18.00;12.00
77354;PMS7003;66422;51.202;19.936;2023-04-25T04:10:10;15.67;13.33;9.67
77354;PMS7003;66422;51.202;19.936;2023-04-25T04:25:32;14.00;13.00;9.00
77354;PMS7003;66422;51.202;19.936;2023-04-25T04:41:11;24.00;19.33;13.33
77354;PMS7003;66422;51.202;19.936;2023-04-25T04:56:49;13.00;12.00;8.50
77354;PMS7003;66422;51.202;19.936;2023-04-25T05:12:31;13.00;13.00;12.00
77354;PMS7003;66422;51.202;19.936;2023-04-25T05:28:13;14.00;12.00;9.00
77354;PMS7003;66422;51.202;19.936;2023-04-25T05:43:33;19.00;13.00;10.00
77354;PMS7003;66422;51.202;19.936;2023-04-25T05:59:04;18.50;13.50;8.00
77354;PMS7003;66422;51.202;19.936;2023-04-25T06:14:23;16.00;13.00;9.00
77354;PMS7003;66422;51.202;19.936;2023-04-25T06:29:43;13.00;9.00;8.00
77354;PMS7003;66422;51.202;19.936;2023-04-25T06:45:03;15.50;12.00;10.00
77354;PMS7003;66422;51.202;19.936;2023-04-25T07:00:23;20.00;13.00;9.00
77354;PMS7003;66422;51.202;19.936;2023-04-25T07:15:43;17.00;14.00;11.00
77354;PMS7003;66422;51.202;19.936;2023-04-25T07:31:04;10.00;10.00;6.00
77354;PMS7003;66422;51.202;19.936;2023-04-25T07:46:25;14.00;13.00;9.75
77354;PMS7003;66422;51.202;19.936;2023-04-25T08:01:45;14.00;14.00;9.00
77354;PMS7003;66422;51.202;19.936;2023-04-25T08:17:05;19.50;18.00;12.00
77354;PMS7003;66422;51.202;19.936;2023-04-25T08:32:27;29.50;19.50;14.50
77354;PMS7003;66422;51.202;19.936;2023-04-25T08:47:59;23.50;19.50;13.50
77354;PMS7003;66422;51.202;19.936;2023-04-25T09:03:20;17.00;17.00;14.00
77354;PMS7003;66422;51.202;19.936;2023-04-25T09:18:40;12.00;12.00;10.00
77354;PMS7003;66422;51.202;19.936;2023-04-25T09:34:00;13.50;10.50;8.50
77354;PMS7003;66422;51.202;19.936;2023-04-25T09:49:20;15.50;10.00;8.00
77354;PMS7003;66422;51.202;19.936;2023-04-25T10:04:49;9.33;9.00;5.67
77354;PMS7003;66422;51.202;19.936;2023-04-25T10:20:18;14.50;12.00;9.00
77354;PMS7003;66422;51.202;19.936;2023-04-25T10:35:38;15.00;12.00;9.00
77354;PMS7003;66422;51.202;19.936;2023-04-25T10:51:08;14.50;13.00;8.50
77354;PMS7003;66422;51.202;19.936;2023-04-25T11:06:45;16.00;13.00;12.00
77354;PMS7003;66422;51.202;19.936;2023-04-25T11:22:17;19.33;14.67;10.00
77354;PMS7003;66422;51.202;19.936;2023-04-25T11:37:40;13.00;12.00;8.50
77354;PMS7003;66422;51.202;19.936;2023-04-25T11:53:01;15.00;12.00;9.00
77354;PMS7003;66422;51.202;19.936;2023-04-25T12:08:20;12.00;11.00;9.00
77354;PMS7003;66422;51.202;19.936;2023-04-25T12:23:40;12.50;12.50;9.00
77354;PMS7003;66422;51.202;19.936;2023-04-25T12:39:01;9.50;7.50;5.00
77354;PMS7003;66422;51.202;19.936;2023-04-25T12:54:23;17.00;15.00;12.00
77354;PMS7003;66422;51.202;19.936;2023-04-25T13:09:44;15.00;10.00;8.67
77354;PMS7003;66422;51.202;19.936;2023-04-25T13:25:05;20.00;17.00;10.33
77354;PMS7003;66422;51.202;19.936;2023-04-25T13:40:26;19.00;14.00;12.00
77354;PMS7003;66422;51.202;19.936;2023-04-25T13:55:47;11.00;10.00;8.00
77354;PMS7003;66422;51.202;19.936;2023-04-25T14:11:06;11.00;9.00;8.00
77354;PMS7003;66422;51.202;19.936;2023-04-25T14:26:26;12.00;10.50;9.00
77354;PMS7003;66422;51.202;19.936;2023-04-25T14:41:45;20.50;17.00;13.50
77354;PMS7003;66422;51.202;19.936;2023-04-25T14:57:05;15.00;12.50;10.00
77354;PMS7003;66422;51.202;19.936;2023-04-25T15:12:25;11.00;10.00;8.00
77354;PMS7003;66422;51.202;19.936;2023-04-25T15:27:47;10.00;8.00;7.00
77354;PMS7003;66422;51.202;19.936;2023-04-25T15:43:08;10.50;7.00;5.50
77354;PMS7003;66422;51.202;19.936;2023-04-25T15:58:34;40.00;30.33;21.00
77354;PMS7003;66422;51.202;19.936;2023-04-25T16:13:55;31.00;25.00;20.00
77354;PMS7003;66422;51.202;19.936;2023-04-25T16:29:14;30.00;24.50;18.00
77354;PMS7003;66422;51.202;19.936;2023-04-25T16:44:36;33.50;23.50;16.00
77354;PMS7003;66422;51.202;19.936;2023-04-25T16:59:56;53.00;39.33;26.00
77354;PMS7003;66422;51.202;19.936;2023-04-25T17:15:15;19.00;13.33;9.00
77354;PMS7003;66422;51.202;19.936;2023-04-25T17:30:35;39.50;29.00;19.00
77354;PMS7003;66422;51.202;19.936;2023-04-25T17:45:54;21.00;15.00;11.00
77354;PMS7003;66422;51.202;19.936;2023-04-25T18:01:14;21.33;17.00;12.67
77354;PMS7003;66422;51.202;19.936;2023-04-25T18:16:34;32.00;23.00;15.00
77354;PMS7003;66422;51.202;19.936;2023-04-25T18:31:54;65.50;52.00;33.00
77354;PMS7003;66422;51.202;19.936;2023-04-25T18:47:15;41.25;32.50;22.75
77354;PMS7003;66422;51.202;19.936;2023-04-25T19:02:35;30.00;26.00;19.50
77354;PMS7003;66422;51.202;19.936;2023-04-25T19:17:56;35.00;27.67;18.67
77354;PMS7003;66422;51.202;19.936;2023-04-25T19:33:15;31.00;25.67;19.33
77354;PMS7003;66422;51.202;19.936;2023-04-25T19:48:35;20.50;18.00;12.50
77354;PMS7003;66422;51.202;19.936;2023-04-25T20:03:55;25.00;18.00;13.00
77354;PMS7003;66422;51.202;19.936;2023-04-25T20:19:14;22.00;17.00;13.00
77354;PMS7003;66422;51.202;19.936;2023-04-25T20:34:34;27.50;18.00;12.50
77354;PMS7003;66422;51.202;19.936;2023-04-25T20:49:55;19.00;16.00;11.67
77354;PMS7003;66422;51.202;19.936;2023-04-25T21:05:15;18.00;13.00;11.00
77354;PMS7003;66422;51.202;19.936;2023-04-25T21:20:35;16.00;11.00;8.00
77354;PMS7003;66422;51.202;19.936;2023-04-25T21:35:55;13.50;11.00;9.00
77354;PMS7003;66422;51.202;19.936;2023-04-25T21:51:14;6.33;6.33;5.33
77354;PMS7003;66422;51.202;19.936;2023-04-25T22:06:35;13.00;9.50;7.00
77354;PMS7003;66422;51.202;19.936;2023-04-25T22:21:55;9.00;7.00;6.00
77354;PMS7003;66422;51.202;19.936;2023-04-25T22:37:15;14.00;10.00;7.00
77354;PMS7003;66422;51.202;19.936;2023-04-25T22:52:35;13.00;9.00;7.00
77354;PMS7003;66422;51.202;19.936;2023-04-25T23:07:56;12.67;10.00;7.33
77354;PMS7003;66422;51.202;19.936;2023-04-25T23:23:16;11.00;9.00;6.00
77354;PMS7003;66422;51.202;19.936;2023-04-25T23:38:36;14.33;7.00;6.00
77354;PMS7003;66422;51.202;19.936;2023-04-25T23:53:56;13.50;6.00;6.00
